Time;durP1;ratioP1;P1;durP2;ratioP2;P2;SDS_P1;SDS_P2;PMS_P1;PMS_P2;Temp;Humidity;BMP_temperature;BMP_pressure;BME280_temperature;BME280_humidity;BME280_pressure;Samples;Min_cycle;Max_cycle;Signal;HPM_P1;HPM_P2
2023/12/19 00:02:03;;;;;;;;;;;0.10;72.70;;;;;;5054546;28;20029;-74
2023/12/19 00:04:36;;;;;;;12.75;6.10;;;0.10;72.50;;;;;;5053330;28;19921;-74
2023/12/19 00:07:02;;;;;;;13.63;4.80;;;0.10;72.50;;;;;;5054916;28;20428;-72
2023/12/19 00:09:28;;;;;;;9.57;5.18;;;0.10;72.70;;;;;;5054705;28;20052;-74
2023/12/19 00:11:54;;;;;;;9.05;7.38;;;0.10;72.90;;;;;;5052683;28;20033;-75
2023/12/19 00:14:20;;;;;;;9.82;5.47;;;0.10;72.80;;;;;;5054696;28;20048;-72
2023/12/19 00:16:46;;;;;;;18.60;8.73;;;0.10;72.80;;;;;;5069743;28;20047;-75
2023/12/19 00:19:12;;;;;;;10.63;4.82;;;0.10;72.70;;;;;;5069459;28;20488;-72
2023/12/19 00:21:38;;;;;;;8.15;4.97;;;0.00;72.60;;;;;;5053005;28;20037;-72
2023/12/19 00:24:05;;;;;;;12.35;7.20;;;0.10;72.60;;;;;;5053859;28;20402;-75
2023/12/19 00:26:31;;;;;;;13.65;7.68;;;0.10;72.60;;;;;;5053940;28;20036;-74
2023/12/19 00:28:57;;;;;;;12.70;7.80;;;0.00;72.60;;;;;;5052806;28;20445;-75
2023/12/19 00:31:23;;;;;;;11.57;4.88;;;0.00;72.40;;;;;;5051959;28;20483;-72
2023/12/19 00:33:49;;;;;;;3.60;2.65;;;0.00;72.20;;;;;;5054272;28;20082;-72
2023/12/19 00:36:34;;;;;;;12.27;4.35;;;0.00;72.40;;;;;;5035820;28;20029;-75
2023/12/19 00:39:04;;;;;;;13.30;3.67;;;0.00;72.50;;;;;;5053807;28;20037;-75
2023/12/19 00:41:30;;;;;;;6.05;4.50;;;-0.10;72.30;;;;;;5068347;28;20448;-75
2023/12/19 00:43:56;;;;;;;;;;;0.00;72.20;;;;;;5054140;28;20429;-72
2023/12/19 00:46:22;;;;;;;10.32;2.78;;;0.00;72.20;;;;;;5035654;28;19963;-75
2023/12/19 00:48:48;;;;;;;9.13;5.05;;;-0.10;72.30;;;;;;5069160;28;20044;-72
2023/12/19 00:51:14;;;;;;;11.20;5.53;;;-0.10;72.60;;;;;;5053107;28;20049;-72
2023/12/19 00:53:41;;;;;;;9.57;4.97;;;-0.10;72.60;;;;;;5052273;28;20063;-72
2023/12/19 00:56:09;;;;;;;7.70;4.63;;;-0.10;72.70;;;;;;5053204;28;20045;-75
2023/12/19 00:58:36;;;;;;;6.00;3.47;;;-0.10;72.60;;;;;;5052085;28;20048;-75
2023/12/19 01:01:04;;;;;;;11.50;4.75;;;-0.10;72.60;;;;;;5051759;28;20170;-72
2023/12/19 01:03:30;;;;;;;12.32;4.50;;;-0.10;72.60;;;;;;5052041;28;20044;-75
2023/12/19 01:05:56;;;;;;;8.50;5.13;;;-0.10;72.70;;;;;;5068754;28;20041;-75
2023/12/19 01:08:22;;;;;;;8.80;4.20;;;0.00;72.60;;;;;;5053172;28;20098;-75
2023/12/19 01:10:48;;;;;;;7.13;4.78;;;0.00;72.50;;;;;;5052726;28;20025;-72
2023/12/19 01:13:14;;;;;;;7.25;5.43;;;0.00;72.60;;;;;;5053321;28;20037;-72
2023/12/19 01:15:40;;;;;;;6.20;4.30;;;0.00;72.70;;;;;;5052776;28;20025;-75
2023/12/19 01:18:06;;;;;;;9.50;5.82;;;0.00;72.90;;;;;;5053007;28;20148;-72
2023/12/19 01:20:32;;;;;;;13.43;6.13;;;0.00;72.90;;;;;;5067697;28;20033;-75
2023/12/19 01:22:58;;;;;;;8.95;3.75;;;0.00;73.00;;;;;;5053073;28;20087;-75
2023/12/19 01:25:24;;;;;;;8.18;3.47;;;-0.10;73.90;;;;;;5051423;28;20040;-72
2023/12/19 01:27:50;;;;;;;4.22;2.20;;;0.00;73.10;;;;;;5051677;28;20466;-75
2023/12/19 01:30:16;;;;;;;8.15;4.50;;;-0.10;73.20;;;;;;5050924;28;20033;-75
2023/12/19 01:32:42;;;;;;;6.72;3.80;;;-0.10;73.30;;;;;;5052840;28;20051;-75
2023/12/19 01:35:09;;;;;;;8.18;4.68;;;-0.10;73.30;;;;;;5053131;28;20390;-72
2023/12/19 01:37:35;;;;;;;4.68;2.00;;;-0.20;72.70;;;;;;5051293;28;20079;-72
2023/12/19 01:40:01;;;;;;;6.05;4.18;;;-0.20;73.20;;;;;;5068204;28;20432;-72
2023/12/19 01:42:27;;;;;;;6.30;2.97;;;-0.20;73.20;;;;;;5052285;28;20094;-72
2023/12/19 01:45:13;;;;;;;8.27;3.75;;;-0.20;72.90;;;;;;5051239;28;20037;-75
2023/12/19 01:47:43;;;;;;;4.15;2.95;;;-0.30;72.90;;;;;;5068224;28;20422;-75
2023/12/19 01:50:29;;;;;;;4.90;3.15;;;-0.30;73.00;;;;;;5050414;28;20044;-72
2023/12/19 01:52:58;;;;;;;6.45;2.67;;;-0.40;73.00;;;;;;5051417;28;20490;-72
2023/12/19 01:55:25;;;;;;;4.68;2.30;;;-0.40;72.90;;;;;;5050971;28;20111;-75
2023/12/19 01:57:54;;;;;;;5.72;2.38;;;-0.40;72.80;;;;;;5052533;28;20429;-72
2023/12/19 02:00:21;;;;;;;3.60;2.13;;;-0.40;72.90;;;;;;5067227;28;20059;-75
2023/12/19 02:02:52;;;;;;;4.70;2.78;;;-0.40;72.80;;;;;;5067882;28;20057;-75
2023/12/19 02:05:19;;;;;;;7.20;4.88;;;-0.50;72.90;;;;;;5051125;28;20057;-75
2023/12/19 02:07:45;;;;;;;6.18;3.67;;;-0.50;73.00;;;;;;5052082;28;20032;-72
2023/12/19 02:10:12;;;;;;;6.18;2.83;;;-0.50;73.10;;;;;;5067188;28;20037;-75
2023/12/19 02:12:38;;;;;;;9.40;4.93;;;-0.40;73.00;;;;;;5052175;28;20068;-72
2023/12/19 02:15:06;;;;;;;8.13;3.75;;;-0.40;73.00;;;;;;5067839;28;20037;-75
2023/12/19 02:17:32;;;;;;;5.00;2.33;;;-0.50;72.90;;;;;;5051999;28;20548;-73
2023/12/19 02:19:59;;;;;;;6.00;3.65;;;-0.50;73.10;;;;;;5067748;28;20044;-75
2023/12/19 02:22:26;;;;;;;4.10;1.98;;;-0.50;73.00;;;;;;5050260;28;20033;-72
2023/12/19 02:24:53;;;;;;;7.03;2.58;;;-0.50;73.10;;;;;;5034257;28;20033;-74
2023/12/19 02:27:23;;;;;;;6.32;2.65;;;-0.50;73.00;;;;;;5067619;28;20033;-75
2023/12/19 02:29:50;;;;;;;3.70;1.92;;;-0.60;72.70;;;;;;5050926;28;20049;-72
2023/12/19 02:32:16;;;;;;;7.90;3.65;;;-0.60;72.90;;;;;;5051618;28;20045;-75
2023/12/19 02:34:42;;;;;;;;;;;-0.70;73.00;;;;;;5051379;28;20112;-75
2023/12/19 02:37:08;;;;;;;2.40;1.45;;;-0.70;72.80;;;;;;5067421;28;20282;-74
2023/12/19 02:39:34;;;;;;;4.05;2.80;;;-0.60;72.80;;;;;;5067489;28;20037;-72
2023/12/19 02:42:00;;;;;;;3.20;2.33;;;-0.60;72.70;;;;;;5050194;28;20033;-75
2023/12/19 02:44:26;;;;;;;3.42;2.53;;;-0.60;72.70;;;;;;5070021;28;20111;-71
2023/12/19 02:46:52;;;;;;;6.80;3.72;;;-0.60;72.70;;;;;;5056185;28;20033;-75
2023/12/19 02:49:19;;;;;;;5.18;2.80;;;-0.60;72.70;;;;;;5054676;28;20045;-75
2023/12/19 02:51:45;;;;;;;7.32;3.13;;;-0.60;72.60;;;;;;5070732;28;20052;-75
2023/12/19 02:54:11;;;;;;;4.15;2.88;;;-0.60;72.80;;;;;;5055704;28;20082;-72
2023/12/19 02:56:37;;;;;;;8.52;3.80;;;-0.60;72.90;;;;;;5054470;28;20052;-73
2023/12/19 02:59:03;;;;;;;4.75;3.20;;;-0.60;73.00;;;;;;5055835;28;20068;-75
2023/12/19 03:01:29;;;;;;;4.88;2.40;;;-0.60;72.90;;;;;;5055411;28;20037;-75
2023/12/19 03:03:55;;;;;;;4.60;2.90;;;-0.60;72.90;;;;;;5055882;28;20048;-72
2023/12/19 03:06:21;;;;;;;5.18;2.55;;;-0.60;72.80;;;;;;5037529;28;20048;-75
2023/12/19 03:08:48;;;;;;;3.45;1.92;;;-0.60;72.70;;;;;;5055509;28;20052;-75
2023/12/19 03:11:14;;;;;;;4.05;2.55;;;-0.50;72.70;;;;;;5070328;28;20033;-75
2023/12/19 03:13:41;;;;;;;8.73;3.15;;;-0.50;72.50;;;;;;5054242;28;20127;-72
2023/12/19 03:16:07;;;;;;;6.55;3.35;;;-0.50;72.10;;;;;;5055211;28;20029;-75
2023/12/19 03:18:33;;;;;;;4.10;2.97;;;-0.50;72.90;;;;;;5070663;28;20037;-75
2023/12/19 03:20:59;;;;;;;6.72;4.13;;;-0.50;72.80;;;;;;5053302;28;20032;-72
2023/12/19 03:23:27;;;;;;;5.53;2.25;;;-0.50;72.60;;;;;;5055442;28;20086;-75
2023/12/19 03:25:53;;;;;;;7.43;4.18;;;-0.50;72.50;;;;;;5055114;28;20040;-72
2023/12/19 03:28:19;;;;;;;;;;;-0.50;72.60;;;;;;5071260;28;20033;-72
2023/12/19 03:30:45;;;;;;;9.43;4.18;;;-0.50;72.60;;;;;;5054653;28;19944;-72
2023/12/19 03:33:11;;;;;;;9.77;3.75;;;-0.40;72.60;;;;;;5055289;28;20033;-72
2023/12/19 03:35:37;;;;;;;3.92;2.13;;;-0.50;72.70;;;;;;5053520;28;20128;-75
2023/12/19 03:38:03;;;;;;;15.25;5.82;;;-0.50;72.70;;;;;;5055075;28;20029;-75
2023/12/19 03:40:29;;;;;;;13.25;4.43;;;-0.50;72.90;;;;;;5054373;28;20041;-75
2023/12/19 03:42:55;;;;;;;13.07;5.20;;;-0.50;73.10;;;;;;5070432;28;20029;-75
2023/12/19 03:45:21;;;;;;;7.38;5.40;;;-0.50;73.10;;;;;;5069966;28;20033;-75
2023/12/19 03:47:47;;;;;;;10.02;6.38;;;-0.60;73.20;;;;;;5070457;28;20075;-72
2023/12/19 03:50:13;;;;;;;6.40;4.18;;;-0.60;73.30;;;;;;5054086;28;20090;-72
2023/12/19 03:52:39;;;;;;;6.35;4.75;;;-0.60;73.50;;;;;;5053519;28;20037;-72
2023/12/19 03:55:08;;;;;;;6.45;4.28;;;-0.60;73.80;;;;;;5053497;28;20078;-72
2023/12/19 03:57:34;;;;;;;4.68;3.22;;;-0.70;73.50;;;;;;5053709;28;20040;-75
2023/12/19 04:00:00;;;;;;;6.97;4.13;;;-0.70;74.20;;;;;;5070250;28;20037;-72
2023/12/19 04:02:26;;;;;;;;;;;-0.80;73.50;;;;;;5053211;28;20036;-73
2023/12/19 04:04:52;;;;;;;8.25;4.07;;;-0.80;74.20;;;;;;5054468;28;19921;-75
2023/12/19 04:07:18;;;;;;;8.43;3.63;;;-0.90;74.10;;;;;;5054552;28;20040;-75
2023/12/19 04:09:44;;;;;;;20.45;9.35;;;-1.00;74.40;;;;;;5069961;28;20049;-75
2023/12/19 04:14:55;;;;;;;11.80;5.97;;;-1.10;74.90;;;;;;5054434;28;20037;-75
2023/12/19 04:17:21;;;;;;;9.57;5.95;;;-1.10;74.50;;;;;;5054389;28;20029;-75
2023/12/19 04:19:47;;;;;;;11.98;5.85;;;-1.10;74.30;;;;;;5054014;28;20047;-72
2023/12/19 04:22:13;;;;;;;16.02;8.70;;;-1.10;74.10;;;;;;5069079;28;20033;-72
2023/12/19 04:24:40;;;;;;;12.93;5.45;;;-1.00;73.90;;;;;;5054380;28;20041;-75
2023/12/19 04:27:06;;;;;;;13.27;7.63;;;-1.00;73.60;;;;;;5052914;28;20040;-74
2023/12/19 04:29:32;;;;;;;;;;;-1.10;73.10;;;;;;5054766;28;20037;-75
2023/12/19 04:31:58;;;;;;;6.32;4.05;;;-1.00;73.70;;;;;;5052228;28;19927;-75
2023/12/19 04:34:24;;;;;;;12.05;4.88;;;-1.00;74.00;;;;;;5069525;28;20494;-71
2023/12/19 04:36:50;;;;;;;8.20;5.97;;;-1.00;74.30;;;;;;5053738;28;20394;-72
2023/12/19 04:39:16;;;;;;;10.93;7.47;;;-0.90;74.30;;;;;;5054256;28;20367;-72
2023/12/19 04:41:42;;;;;;;4.90;4.05;;;-0.90;74.60;;;;;;5051855;28;20063;-72
2023/12/19 04:44:08;;;;;;;17.83;5.90;;;-0.90;74.70;;;;;;5053995;28;20033;-75
2023/12/19 04:46:34;;;;;;;8.98;7.15;;;-0.80;74.50;;;;;;5068938;28;20044;-72
2023/12/19 04:49:00;;;;;;;8.40;3.60;;;-0.80;74.50;;;;;;5069214;28;20360;-75
2023/12/19 04:51:26;;;;;;;15.10;8.38;;;-0.80;74.50;;;;;;5053247;28;20037;-72
2023/12/19 04:53:53;;;;;;;16.10;6.97;;;-0.80;74.40;;;;;;5052364;28;20030;-74
2023/12/19 04:56:19;;;;;;;10.55;6.25;;;-0.70;74.60;;;;;;5051959;28;20513;-75
2023/12/19 05:01:30;;;;;;;8.32;4.93;;;-0.80;74.90;;;;;;5066169;28;19927;-72
2023/12/19 05:03:56;;;;;;;9.02;6.57;;;-0.80;75.10;;;;;;5052177;28;20025;-75
2023/12/19 05:06:22;;;;;;;15.35;7.28;;;-0.80;75.20;;;;;;5051350;28;20475;-72
2023/12/19 05:08:49;;;;;;;12.52;7.45;;;-0.80;75.20;;;;;;5068771;28;20068;-75
2023/12/19 05:11:15;;;;;;;19.13;9.07;;;-0.80;75.10;;;;;;5068008;28;20048;-72
2023/12/19 05:13:41;;;;;;;22.48;7.53;;;-0.80;75.20;;;;;;5051909;28;20044;-72
2023/12/19 05:16:27;;;;;;;9.43;7.32;;;-0.90;75.20;;;;;;5053002;28;20040;-72
2023/12/19 05:18:53;;;;;;;20.85;6.78;;;-0.80;75.20;;;;;;5051825;28;20075;-72
2023/12/19 05:21:22;;;;;;;8.20;5.28;;;-0.80;75.10;;;;;;5051296;28;20045;-72
2023/12/19 05:23:49;;;;;;;16.20;6.28;;;-0.80;75.10;;;;;;5068069;28;20501;-72
2023/12/19 05:26:15;;;;;;;12.05;4.90;;;-0.80;75.20;;;;;;5052927;28;20025;-75
2023/12/19 05:28:41;;;;;;;12.38;7.15;;;-0.90;75.30;;;;;;5034924;28;20071;-72
2023/12/19 05:31:09;;;;;;;;;;;-0.90;75.00;;;;;;5051538;28;20516;-72
2023/12/19 05:33:35;;;;;;;11.38;6.30;;;-0.90;75.70;;;;;;5067968;28;19970;-72
2023/12/19 05:36:01;;;;;;;15.80;5.70;;;-1.00;75.80;;;;;;5068144;28;20025;-74
2023/12/19 05:38:30;;;;;;;;;;;-0.90;76.20;;;;;;5068204;28;20551;-72
2023/12/19 05:40:57;;;;;;;6.85;5.00;;;-0.90;76.10;;;;;;5050635;28;19977;-72
2023/12/19 05:43:24;;;;;;;4.70;3.17;;;-1.00;76.10;;;;;;5052915;28;20091;-73
2023/12/19 05:45:50;;;;;;;4.63;3.05;;;-1.00;75.80;;;;;;5051121;28;20068;-75
2023/12/19 05:48:16;;;;;;;10.88;7.38;;;-1.10;76.30;;;;;;5051326;28;20064;-72
2023/12/19 05:50:42;;;;;;;9.73;3.60;;;-1.00;76.60;;;;;;5050770;28;20025;-75
2023/12/19 05:53:09;;;;;;;10.15;4.93;;;-1.10;76.60;;;;;;5052644;28;20044;-75
2023/12/19 05:55:35;;;;;;;15.23;8.55;;;-1.20;76.70;;;;;;5051634;28;20087;-72
2023/12/19 05:58:01;;;;;;;13.27;7.55;;;-1.20;76.70;;;;;;5051770;28;20102;-75
2023/12/19 06:00:27;;;;;;;10.93;6.95;;;-1.20;76.30;;;;;;5051811;28;20620;-74
2023/12/19 06:02:53;;;;;;;7.53;5.07;;;-1.20;76.20;;;;;;5052426;28;20399;-72
2023/12/19 06:05:20;;;;;;;5.93;3.67;;;-1.30;76.20;;;;;;5051997;28;20478;-75
2023/12/19 06:07:46;;;;;;;17.80;9.23;;;-1.20;76.10;;;;;;5050905;28;20083;-72
2023/12/19 06:10:13;;;;;;;;;;;-1.20;75.90;;;;;;5050842;28;20520;-75
2023/12/19 06:12:40;;;;;;;10.35;6.65;;;-1.20;75.60;;;;;;5051005;28;19912;-72
2023/12/19 06:15:11;;;;;;;17.02;7.90;;;-1.20;75.40;;;;;;5034337;28;20494;-75
2023/12/19 06:17:56;;;;;;;12.23;6.45;;;-1.20;75.30;;;;;;5050311;28;20048;-75
2023/12/19 06:20:22;;;;;;;22.23;8.95;;;-1.10;75.30;;;;;;5050210;28;20076;-75
2023/12/19 06:22:48;;;;;;;12.07;9.43;;;-1.20;75.00;;;;;;5067486;28;20159;-72
2023/12/19 06:25:14;;;;;;;16.58;6.85;;;-1.20;75.00;;;;;;5051854;28;20033;-75
2023/12/19 06:27:42;;;;;;;14.75;6.40;;;-1.20;75.10;;;;;;5050888;28;20402;-75
2023/12/19 06:30:09;;;;;;;12.07;6.75;;;-1.10;75.00;;;;;;5051140;28;20475;-75
2023/12/19 06:32:36;;;;;;;22.83;7.47;;;-1.10;74.20;;;;;;5052021;28;20033;-75
2023/12/19 06:35:06;;;;;;;18.02;9.55;;;-1.10;74.70;;;;;;5050745;28;20083;-75
2023/12/19 06:37:33;;;;;;;18.27;5.35;;;-1.20;74.00;;;;;;5050951;28;20032;-72
2023/12/19 06:39:59;;;;;;;19.35;6.63;;;-1.20;74.60;;;;;;5050579;28;20048;-75
2023/12/19 06:42:25;;;;;;;8.00;4.80;;;-1.20;74.30;;;;;;5050119;28;20041;-72
2023/12/19 06:44:51;;;;;;;11.02;6.55;;;-1.20;75.00;;;;;;5052120;28;20059;-75
2023/12/19 06:47:17;;;;;;;14.73;7.10;;;-1.20;75.20;;;;;;5052019;28;20045;-74
2023/12/19 06:49:44;;;;;;;20.52;6.88;;;-1.20;75.50;;;;;;5050912;28;20446;-73
2023/12/19 06:52:10;;;;;;;16.48;6.65;;;-1.20;75.50;;;;;;5049972;28;20063;-75
2023/12/19 06:54:54;;;;;;;12.02;7.55;;;-1.20;75.40;;;;;;5050620;28;20033;-72
2023/12/19 06:57:21;;;;;;;13.20;8.52;;;-1.20;75.40;;;;;;5050535;28;20029;-76
2023/12/19 06:59:47;;;;;;;14.18;8.15;;;-1.20;75.20;;;;;;5052109;28;20041;-72
2023/12/19 07:02:13;;;;;;;20.58;14.98;;;-1.20;75.10;;;;;;5051672;28;20139;-72
2023/12/19 07:04:39;;;;;;;;;;;-1.20;74.80;;;;;;5034233;28;20052;-75
2023/12/19 07:07:06;;;;;;;10.20;6.00;;;-1.30;74.70;;;;;;5050524;28;19912;-75
2023/12/19 07:09:32;;;;;;;9.85;7.47;;;-1.30;74.60;;;;;;5050614;28;20045;-75
2023/12/19 07:11:58;;;;;;;18.23;9.00;;;-1.30;74.60;;;;;;5051203;28;20038;-72
2023/12/19 07:14:24;;;;;;;22.52;12.10;;;-1.30;74.50;;;;;;5050496;28;20090;-75
2023/12/19 07:16:50;;;;;;;18.88;11.55;;;-1.30;74.20;;;;;;5050256;28;20035;-72
2023/12/19 07:19:16;;;;;;;10.85;7.25;;;-1.30;73.90;;;;;;5050279;28;20036;-72
2023/12/19 07:21:43;;;;;;;19.77;15.10;;;-1.20;73.80;;;;;;5049910;28;20116;-72
2023/12/19 07:24:09;;;;;;;21.25;10.60;;;-1.10;73.70;;;;;;5051681;28;20087;-75
2023/12/19 07:26:35;;;;;;;20.05;9.82;;;-1.00;73.60;;;;;;5051352;28;20112;-75
2023/12/19 07:29:02;;;;;;;9.93;8.02;;;-0.80;73.60;;;;;;5050783;28;20441;-72
2023/12/19 07:31:47;;;;;;;25.27;9.73;;;-0.80;73.30;;;;;;5053324;28;20037;-72
2023/12/19 07:34:13;;;;;;;13.27;8.02;;;-0.70;73.10;;;;;;5054003;28;20314;-72
2023/12/19 07:36:40;;;;;;;14.93;9.73;;;-0.60;72.80;;;;;;5053779;28;20078;-75
2023/12/19 07:39:06;;;;;;;10.70;8.75;;;-0.50;72.70;;;;;;5055215;28;20402;-75
2023/12/19 07:41:33;;;;;;;12.68;7.63;;;-0.40;72.60;;;;;;5036479;28;20045;-72
2023/12/19 07:43:59;;;;;;;12.52;6.82;;;-0.30;72.50;;;;;;5053844;28;20120;-75
2023/12/19 07:46:26;;;;;;;14.30;7.50;;;-0.20;72.50;;;;;;5053463;28;20029;-74
2023/12/19 07:48:52;;;;;;;13.55;6.75;;;-0.20;72.30;;;;;;5053724;28;20494;-74
2023/12/19 07:51:36;;;;;;;17.67;8.25;;;0.00;72.30;;;;;;5054339;28;20029;-75
2023/12/19 07:54:03;;;;;;;18.08;9.68;;;0.00;72.30;;;;;;5054987;28;20039;-72
2023/12/19 07:56:29;;;;;;;;;;;0.10;72.00;;;;;;5054138;28;20242;-74
2023/12/19 07:58:55;;;;;;;15.10;9.38;;;0.10;72.00;;;;;;5053348;28;20007;-73
2023/12/19 08:01:21;;;;;;;14.15;9.35;;;0.20;72.10;;;;;;5052843;28;20036;-76
2023/12/19 08:03:47;;;;;;;;;;;0.30;72.10;;;;;;5055339;28;20040;-75
2023/12/19 08:06:13;;;;;;;14.82;11.65;;;0.30;72.30;;;;;;5053352;28;20209;-75
2023/12/19 08:08:41;;;;;;;11.68;6.18;;;0.40;72.20;;;;;;5036618;28;20106;-75
2023/12/19 08:11:08;;;;;;;20.45;9.63;;;0.50;71.60;;;;;;5052573;28;20045;-73
2023/12/19 08:13:35;;;;;;;22.65;9.43;;;0.40;71.20;;;;;;5053227;28;20041;-73
2023/12/19 08:16:02;;;;;;;10.05;6.88;;;0.40;72.00;;;;;;5052957;28;20025;-72
2023/12/19 08:18:28;;;;;;;;;;;0.50;72.30;;;;;;5054795;28;20037;-72
2023/12/19 08:20:54;;;;;;;14.25;5.10;;;0.50;72.50;;;;;;5052585;28;19920;-75
2023/12/19 08:23:20;;;;;;;10.35;7.13;;;0.60;72.50;;;;;;5052956;28;20039;-73
2023/12/19 08:25:46;;;;;;;8.50;5.03;;;0.70;72.80;;;;;;5054045;28;20037;-73
2023/12/19 08:28:12;;;;;;;16.45;7.50;;;0.80;72.20;;;;;;5054129;28;20456;-72
2023/12/19 08:30:57;;;;;;;12.07;7.78;;;0.90;72.30;;;;;;5052129;28;20037;-72
2023/12/19 08:33:23;;;;;;;12.45;8.52;;;0.90;72.70;;;;;;5054219;28;20305;-75
2023/12/19 08:35:49;;;;;;;13.95;7.35;;;1.10;72.70;;;;;;5053718;28;20075;-73
2023/12/19 08:38:15;;;;;;;11.20;7.35;;;1.30;72.10;;;;;;5052627;28;20041;-75
2023/12/19 08:40:41;;;;;;;12.30;8.23;;;1.50;71.60;;;;;;5068065;28;20406;-75
2023/12/19 08:43:07;;;;;;;13.85;10.00;;;1.60;72.00;;;;;;5053871;28;20029;-72
2023/12/19 08:45:33;;;;;;;17.02;6.22;;;1.80;70.90;;;;;;5053464;28;20632;-72
2023/12/19 08:47:59;;;;;;;17.00;8.07;;;1.90;70.70;;;;;;5052787;28;20075;-72
2023/12/19 08:50:25;;;;;;;15.68;9.00;;;2.00;70.70;;;;;;5052854;28;20126;-73
2023/12/19 08:52:53;;;;;;;12.45;7.22;;;2.10;70.70;;;;;;5035966;28;20029;-73
2023/12/19 08:55:20;;;;;;;17.35;7.72;;;2.20;70.50;;;;;;5053254;28;20414;-75
2023/12/19 08:57:46;;;;;;;18.77;9.85;;;2.40;70.20;;;;;;5052358;28;20055;-72
2023/12/19 09:00:17;;;;;;;;;;;2.60;69.80;;;;;;5051929;28;20060;-75
2023/12/19 09:02:44;;;;;;;21.27;10.63;;;2.70;69.60;;;;;;5053891;28;19913;-73
2023/12/19 09:05:12;;;;;;;31.52;12.18;;;2.90;68.80;;;;;;5051924;28;20114;-72
2023/12/19 09:07:39;;;;;;;20.95;11.60;;;3.00;68.20;;;;;;5052105;28;20029;-73
2023/12/19 09:10:06;;;;;;;12.27;9.82;;;3.30;68.10;;;;;;5051477;28;20386;-75
2023/12/19 09:12:34;;;;;;;20.40;10.88;;;3.50;67.60;;;;;;5052068;28;20026;-75
2023/12/19 09:15:02;;;;;;;18.35;10.65;;;3.60;67.00;;;;;;5051935;28;20041;-75
2023/12/19 09:17:48;;;;;;;13.65;9.27;;;3.70;67.30;;;;;;5053046;28;20055;-75
2023/12/19 09:20:14;;;;;;;22.85;11.98;;;3.70;66.90;;;;;;5052326;28;20041;-74
2023/12/19 09:22:40;;;;;;;21.10;8.45;;;3.90;66.70;;;;;;5052103;28;20036;-72
2023/12/19 09:25:13;;;;;;;;;;;4.00;66.20;;;;;;5051895;28;20071;-72
2023/12/19 09:27:42;;;;;;;9.77;7.93;;;3.90;66.20;;;;;;5053489;28;19912;-72
2023/12/19 09:30:10;;;;;;;18.95;10.15;;;4.00;65.40;;;;;;5067799;28;20037;-75
2023/12/19 09:32:38;;;;;;;14.77;9.75;;;3.90;65.10;;;;;;5051793;28;20078;-72
2023/12/19 09:35:06;;;;;;;6.90;4.97;;;4.20;65.50;;;;;;5051358;28;20571;-75
2023/12/19 09:37:33;;;;;;;10.57;4.43;;;4.40;64.60;;;;;;5051840;28;20025;-72
2023/12/19 09:39:59;;;;;;;11.32;6.07;;;4.50;64.60;;;;;;5068260;28;20378;-71
2023/12/19 09:42:25;;;;;;;8.18;5.47;;;4.70;64.40;;;;;;5070648;28;20393;-75
2023/12/19 09:44:51;;;;;;;11.38;7.93;;;4.70;64.20;;;;;;5054418;28;20028;-74
2023/12/19 09:50:13;;;;;;;14.68;6.35;;;5.10;63.80;;;;;;5070725;28;20478;-72
2023/12/19 09:52:42;;;;;;;10.35;7.03;;;5.50;63.00;;;;;;5070601;28;20036;-74
2023/12/19 09:55:10;;;;;;;7.28;4.93;;;5.70;62.10;;;;;;5054407;28;20501;-72
2023/12/19 09:57:37;;;;;;;5.93;4.15;;;5.80;62.10;;;;;;5071339;28;20032;-75
2023/12/19 10:00:08;;;;;;;7.93;4.95;;;5.90;62.30;;;;;;5070720;28;20040;-74
2023/12/19 10:02:34;;;;;;;12.15;7.75;;;6.00;62.00;;;;;;5071342;28;20056;-74
2023/12/19 10:05:00;;;;;;;13.32;7.13;;;6.00;61.90;;;;;;5072216;28;20060;-74
2023/12/19 10:07:29;;;;;;;5.40;3.90;;;6.20;61.80;;;;;;5054441;28;20079;-72
2023/12/19 10:09:56;;;;;;;5.80;5.13;;;6.30;61.40;;;;;;5072638;28;20386;-72
2023/12/19 10:13:00;;;;;;;10.70;5.85;;;6.60;60.30;;;;;;5070682;28;20029;-72
2023/12/19 10:15:26;;;;;;;3.85;2.88;;;6.80;59.90;;;;;;5070563;28;20520;-72
2023/12/19 10:18:12;;;;;;;14.60;5.60;;;7.40;59.10;;;;;;5072250;28;20064;-74
2023/12/19 10:20:38;;;;;;;6.00;3.80;;;7.80;57.80;;;;;;5070399;28;20035;-72
2023/12/19 10:23:05;;;;;;;;;;;7.90;57.40;;;;;;5071578;28;20044;-74
2023/12/19 10:25:32;;;;;;;9.25;6.78;;;7.90;57.30;;;;;;5070757;28;20003;-74
2023/12/19 10:28:17;;;;;;;10.18;5.00;;;8.00;57.00;;;;;;5070769;28;20032;-74
2023/12/19 10:30:43;;;;;;;7.72;5.70;;;8.10;57.60;;;;;;5071369;28;20029;-73
2023/12/19 10:33:09;;;;;;;5.82;3.85;;;8.10;57.70;;;;;;5071104;28;20033;-71
2023/12/19 10:35:48;;;;;;;10.93;6.38;;;8.00;58.40;;;;;;5071610;28;20436;-74
2023/12/19 10:38:14;;;;;;;13.50;5.32;;;8.40;58.00;;;;;;5070728;28;20036;-72
2023/12/19 10:40:40;;;;;;;4.20;2.33;;;9.40;55.70;;;;;;5071556;28;20024;-74
2023/12/19 10:43:06;;;;;;;7.30;5.32;;;9.60;54.60;;;;;;5072002;28;20033;-74
2023/12/19 10:45:34;;;;;;;11.23;3.78;;;9.60;53.60;;;;;;5070317;28;20110;-74
2023/12/19 10:48:00;;;;;;;4.20;2.78;;;9.30;54.60;;;;;;5070935;28;20027;-72
2023/12/19 10:50:27;;;;;;;;;;;9.00;55.00;;;;;;5070790;28;20037;-74
2023/12/19 10:53:00;;;;;;;6.25;4.03;;;9.00;56.10;;;;;;5054066;28;20015;-72
2023/12/19 10:55:36;;;;;;;8.95;6.95;;;10.30;53.50;;;;;;5053630;28;20090;-72
2023/12/19 10:58:03;;;;;;;9.77;6.75;;;10.70;51.90;;;;;;5070710;28;20046;-72
2023/12/19 11:00:32;;;;;;;8.57;5.32;;;11.10;51.10;;;;;;5069867;28;20162;-73
2023/12/19 11:03:55;;;;;;;6.97;4.47;;;11.30;50.70;;;;;;5070602;28;20035;-72
2023/12/19 11:06:25;;;;;;;5.00;2.60;;;12.70;46.80;;;;;;5075541;28;20516;-74
2023/12/19 11:08:55;;;;;;;7.75;5.63;;;12.70;46.50;;;;;;5074440;28;20385;-72
2023/12/19 11:11:47;;;;;;;8.02;4.93;;;13.10;45.60;;;;;;5073738;28;20047;-74
2023/12/19 11:14:13;;;;;;;3.80;2.58;;;12.20;47.70;;;;;;5074467;28;20085;-74
2023/12/19 11:17:21;;;;;;;4.63;2.67;;;12.30;48.30;;;;;;5074098;28;20028;-75
2023/12/19 11:20:26;;;;;;;3.20;2.40;;;12.50;47.10;;;;;;5075484;28;20055;-74
2023/12/19 11:23:18;;;;;;;4.63;2.38;;;12.50;47.60;;;;;;5073863;28;20044;-72
2023/12/19 11:25:54;;;;;;;5.13;2.75;;;11.90;48.80;;;;;;5075159;28;20041;-74
2023/12/19 11:28:20;;;;;;;6.07;2.88;;;11.90;49.90;;;;;;5074038;28;20029;-72
2023/12/19 11:30:46;;;;;;;4.57;3.08;;;13.30;47.40;;;;;;5073353;28;20134;-72
2023/12/19 11:33:13;;;;;;;7.70;5.25;;;14.20;44.60;;;;;;5074225;28;20139;-74
2023/12/19 11:35:41;;;;;;;4.60;3.53;;;13.60;44.80;;;;;;5073614;28;20420;-72
2023/12/19 11:38:26;;;;;;;6.15;4.28;;;12.60;47.70;;;;;;5057090;28;20032;-72
2023/12/19 11:41:14;;;;;;;13.65;6.40;;;11.90;50.10;;;;;;5056462;28;20143;-74
2023/12/19 11:43:40;;;;;;;5.55;3.47;;;12.00;51.00;;;;;;5073709;28;20047;-74
2023/12/19 11:46:26;;;;;;;5.63;2.90;;;13.30;47.20;;;;;;5074556;28;20027;-74
2023/12/19 11:48:53;;;;;;;6.50;4.50;;;12.80;47.50;;;;;;5073733;28;20036;-74
2023/12/19 11:51:50;;;;;;;6.18;3.75;;;12.00;49.40;;;;;;5073306;28;20036;-72
2023/12/19 11:54:17;;;;;;;5.55;2.88;;;11.90;50.70;;;;;;5056731;28;20048;-74
2023/12/19 11:56:44;;;;;;;6.00;4.22;;;13.60;47.00;;;;;;5073475;28;20538;-74
2023/12/19 11:59:11;;;;;;;9.13;3.60;;;16.20;39.90;;;;;;5073240;28;20032;-72
2023/12/19 12:01:56;;;;;;;2.38;1.80;;;17.00;36.90;;;;;;5073128;28;20033;-74
2023/12/19 12:04:22;;;;;;;5.03;2.75;;;16.30;38.80;;;;;;5073049;28;20037;-72
2023/12/19 12:06:48;;;;;;;4.88;2.97;;;15.30;40.20;;;;;;5073334;28;20036;-74
2023/12/19 12:09:19;;;;;;;2.85;1.73;;;14.70;42.20;;;;;;5074432;28;20041;-71
2023/12/19 12:12:04;;;;;;;3.08;1.95;;;14.10;43.20;;;;;;5074248;28;20127;-74
2023/12/19 12:14:32;;;;;;;6.35;4.07;;;13.20;45.60;;;;;;5073066;28;20123;-72
2023/12/19 12:16:58;;;;;;;7.68;3.15;;;12.60;47.70;;;;;;5073205;28;20126;-74
2023/12/19 12:19:26;;;;;;;3.38;1.83;;;12.20;49.30;;;;;;5073054;28;20040;-74
2023/12/19 12:21:52;;;;;;;7.13;4.40;;;11.90;49.90;;;;;;5055948;28;20456;-72
2023/12/19 12:24:38;;;;;;;4.78;4.20;;;11.60;50.50;;;;;;5073286;28;20044;-74
2023/12/19 12:27:22;;;;;;;4.15;2.85;;;11.30;51.60;;;;;;5074169;28;20029;-72
2023/12/19 12:29:48;;;;;;;4.90;1.98;;;11.20;52.30;;;;;;5074488;28;20051;-72
2023/12/19 12:32:14;;;;;;;;;;;11.20;52.50;;;;;;5072970;28;20047;-72
2023/12/19 12:34:40;;;;;;;17.85;3.88;;;11.30;51.90;;;;;;5056168;28;19916;-72
2023/12/19 12:37:07;;;;;;;1.98;1.02;;;11.70;51.60;;;;;;5074183;28;20041;-73
2023/12/19 12:39:34;;;;;;;3.53;1.77;;;12.40;49.10;;;;;;5056090;28;20033;-72
2023/12/19 12:42:03;;;;;;;1.95;1.52;;;12.40;48.60;;;;;;5072020;28;20041;-74
2023/12/19 12:44:29;;;;;;;1.88;1.10;;;12.50;48.90;;;;;;5055974;28;20041;-72
2023/12/19 12:46:55;;;;;;;2.42;1.38;;;12.70;48.80;;;;;;5055703;28;20058;-72
2023/12/19 12:49:21;;;;;;;2.30;1.52;;;12.70;48.20;;;;;;5072752;28;20041;-74
2023/12/19 12:51:54;;;;;;;1.83;1.52;;;12.70;48.50;;;;;;5073376;28;20044;-74
2023/12/19 12:54:21;;;;;;;8.77;2.72;;;13.90;45.90;;;;;;5073903;28;20028;-74
2023/12/19 12:56:49;;;;;;;2.83;1.67;;;14.60;43.00;;;;;;5073352;28;20079;-75
2023/12/19 12:59:17;;;;;;;1.65;0.93;;;14.70;42.60;;;;;;5072424;28;20032;-74
2023/12/19 13:01:46;;;;;;;4.18;1.08;;;14.40;42.20;;;;;;5055102;28;20259;-74
2023/12/19 13:04:14;;;;;;;2.45;1.58;;;13.80;43.80;;;;;;5071973;28;20486;-74
2023/12/19 13:06:42;;;;;;;4.47;2.10;;;13.40;44.80;;;;;;5072112;28;20028;-72